createdAt,value
2023-03-22T00:01:33.364Z,3.00
2023-03-22T00:04:37.960Z,3.08
2023-03-22T00:07:43.540Z,2.55
2023-03-22T00:10:48.280Z,2.33
2023-03-22T00:13:53.731Z,2.70
2023-03-22T00:16:58.575Z,2.30
2023-03-22T00:20:06.377Z,2.00
2023-03-22T00:23:10.792Z,2.20
2023-03-22T00:26:16.137Z,2.05
2023-03-22T00:29:22.533Z,2.20
2023-03-22T00:32:27.066Z,2.00
2023-03-22T00:35:32.079Z,1.92
2023-03-22T00:38:42.957Z,2.15
2023-03-22T00:41:48.289Z,1.52
2023-03-22T00:44:52.679Z,1.77
2023-03-22T00:47:57.347Z,1.58
2023-03-22T00:51:02.182Z,1.55
2023-03-22T00:54:09.341Z,1.95
2023-03-22T00:57:14.979Z,1.52
2023-03-22T01:00:20.148Z,1.33
2023-03-22T01:03:25.078Z,2.10
2023-03-22T01:06:32.397Z,2.08
2023-03-22T01:09:37.239Z,1.60
2023-03-22T01:12:41.859Z,1.85
2023-03-22T01:15:47.931Z,1.63
2023-03-22T01:18:53.348Z,1.52
2023-03-22T01:21:58.317Z,1.63
2023-03-22T01:25:03.718Z,1.48
2023-03-22T01:28:08.864Z,1.67
2023-03-22T01:31:13.442Z,1.75
2023-03-22T01:34:18.545Z,1.67
2023-03-22T01:37:25.483Z,1.70
2023-03-22T01:40:30.651Z,2.00
2023-03-22T01:43:35.821Z,1.95
2023-03-22T01:46:43.637Z,2.13
2023-03-22T01:49:48.621Z,1.98
2023-03-22T01:52:55.464Z,2.10
2023-03-22T01:56:04.716Z,2.10
2023-03-22T01:59:14.058Z,1.85
2023-03-22T02:02:46.943Z,1.83
2023-03-22T02:06:00.916Z,1.92
2023-03-22T02:09:11.769Z,2.20
2023-03-22T02:12:31.887Z,1.98
2023-03-22T02:16:00.121Z,2.15
2023-03-22T02:20:17.701Z,2.00
2023-03-22T02:23:44.050Z,2.05
2023-03-22T02:27:05.144Z,2.00
2023-03-22T02:30:21.380Z,2.70
2023-03-22T02:33:59.700Z,2.65
2023-03-22T02:37:47.412Z,2.65
2023-03-22T02:41:09.854Z,2.20
2023-03-22T02:45:00.455Z,2.40
2023-03-22T02:48:21.363Z,2.67
2023-03-22T02:52:03.292Z,2.55
2023-03-22T02:55:22.074Z,3.10
2023-03-22T02:58:33.603Z,2.97
2023-03-22T03:01:48.530Z,3.35
2023-03-22T03:04:54.388Z,3.80
2023-03-22T03:08:02.736Z,3.90
2023-03-22T03:11:10.138Z,4.47
2023-03-22T03:14:42.197Z,4.93
2023-03-22T03:17:56.031Z,4.35
2023-03-22T03:21:34.833Z,5.50
2023-03-22T03:24:53.569Z,4.75
2023-03-22T03:28:38.253Z,7.03
2023-03-22T03:32:01.318Z,6.63
2023-03-22T03:35:30.360Z,5.70
2023-03-22T03:38:40.118Z,5.07
2023-03-22T03:41:48.408Z,5.18
2023-03-22T03:44:53.390Z,5.88
2023-03-22T03:48:03.512Z,4.97
2023-03-22T03:51:08.621Z,5.57
2023-03-22T03:54:13.239Z,5.95
2023-03-22T03:57:17.942Z,6.10
2023-03-22T04:00:23.223Z,5.65
2023-03-22T04:04:00.702Z,5.28
2023-03-22T04:07:25.760Z,3.97
2023-03-22T04:10:31.717Z,5.00
2023-03-22T04:13:36.787Z,4.47
2023-03-22T04:16:45.638Z,4.72
2023-03-22T04:19:53.671Z,5.20
2023-03-22T04:22:59.094Z,4.88
2023-03-22T04:26:06.086Z,4.72
2023-03-22T04:29:32.334Z,5.03
2023-03-22T04:32:53.548Z,5.13
2023-03-22T04:36:05.615Z,4.53
2023-03-22T04:39:18.221Z,4.97
2023-03-22T04:42:32.324Z,4.38
2023-03-22T04:45:48.997Z,4.00
2023-03-22T04:48:59.151Z,3.97
2023-03-22T04:52:04.650Z,4.20
2023-03-22T04:55:16.537Z,3.85
2023-03-22T04:58:24.307Z,3.90
2023-03-22T05:01:29.067Z,3.20
2023-03-22T05:04:46.118Z,2.90
2023-03-22T05:08:14.342Z,2.75
2023-03-22T05:11:20.429Z,3.03
2023-03-22T05:14:37.378Z,3.28
2023-03-22T05:17:42.907Z,2.90
2023-03-22T05:20:48.648Z,3.28
2023-03-22T05:23:58.965Z,3.28
2023-03-22T05:27:03.901Z,3.22
2023-03-22T05:30:11.018Z,3.45
2023-03-22T05:33:28.077Z,3.47
2023-03-22T05:36:36.558Z,3.45
2023-03-22T05:40:10.973Z,3.30
2023-03-22T05:43:20.312Z,3.05
2023-03-22T05:46:27.930Z,4.03
2023-03-22T05:49:51.089Z,3.20
2023-03-22T05:52:59.907Z,3.47
2023-03-22T05:56:04.841Z,2.47
2023-03-22T05:59:11.520Z,2.53
2023-03-22T06:02:16.645Z,3.08
2023-03-22T06:05:21.276Z,3.33
2023-03-22T06:08:28.047Z,2.72
2023-03-22T06:11:35.379Z,3.00
2023-03-22T06:14:42.677Z,2.90
2023-03-22T06:18:16.214Z,2.60
2023-03-22T06:21:29.283Z,2.30
2023-03-22T06:24:34.269Z,2.03
2023-03-22T06:27:42.403Z,3.15
2023-03-22T06:30:48.413Z,3.53
2023-03-22T06:34:07.454Z,2.67
2023-03-22T06:37:20.006Z,2.47
2023-03-22T06:40:25.666Z,2.50
2023-03-22T06:43:30.692Z,2.55
2023-03-22T06:46:47.977Z,2.47
2023-03-22T06:50:03.616Z,2.78
2023-03-22T06:53:27.072Z,2.38
2023-03-22T06:56:31.829Z,2.35
2023-03-22T06:59:38.787Z,2.45
2023-03-22T07:02:43.656Z,1.92
2023-03-22T07:06:03.235Z,1.95
2023-03-22T07:09:10.813Z,1.90
2023-03-22T07:12:16.008Z,2.40
2023-03-22T07:15:24.850Z,2.30
2023-03-22T07:21:41.460Z,2.45
2023-03-22T07:24:57.017Z,3.03
2023-03-22T07:28:03.389Z,3.05
2023-03-22T07:31:11.836Z,2.95
2023-03-22T07:34:48.593Z,3.40
2023-03-22T07:37:56.086Z,2.58
2023-03-22T07:41:06.892Z,3.00
2023-03-22T07:44:33.767Z,2.35
2023-03-22T07:47:53.467Z,2.65
2023-03-22T07:51:17.009Z,2.33
2023-03-22T07:54:32.905Z,2.30
2023-03-22T07:57:39.377Z,2.58
2023-03-22T08:00:44.056Z,2.47
2023-03-22T08:04:14.931Z,2.60
2023-03-22T08:07:30.463Z,2.67
2023-03-22T08:10:38.455Z,2.50
2023-03-22T08:13:43.328Z,2.42
2023-03-22T08:16:49.185Z,2.83
2023-03-22T08:19:57.061Z,2.60
2023-03-22T08:23:16.396Z,3.13
2023-03-22T08:26:21.003Z,3.20
2023-03-22T08:29:27.949Z,3.03
2023-03-22T08:32:34.610Z,2.50
2023-03-22T08:35:41.145Z,2.65
2023-03-22T08:38:46.266Z,3.40
2023-03-22T08:41:53.705Z,2.70
2023-03-22T08:45:00.627Z,3.75
2023-03-22T08:48:07.763Z,3.28
2023-03-22T08:51:31.393Z,3.13
2023-03-22T08:54:53.746Z,3.58
2023-03-22T08:58:20.074Z,3.45
2023-03-22T09:01:44.929Z,2.90
2023-03-22T09:04:51.328Z,3.38
2023-03-22T09:08:02.589Z,3.63
2023-03-22T09:11:18.051Z,3.47
2023-03-22T09:14:24.223Z,2.90
2023-03-22T09:17:29.501Z,2.92
2023-03-22T09:20:34.710Z,2.30
2023-03-22T09:23:42.039Z,2.50
2023-03-22T09:26:49.914Z,3.17
2023-03-22T09:29:57.166Z,2.42
2023-03-22T09:33:01.991Z,2.05
2023-03-22T09:36:07.068Z,1.90
2023-03-22T09:39:11.415Z,2.35
2023-03-22T09:42:34.969Z,2.22
2023-03-22T09:45:48.412Z,2.42
2023-03-22T09:48:54.020Z,1.77
2023-03-22T09:51:59.127Z,2.17
2023-03-22T09:55:06.508Z,2.63
2023-03-22T09:58:38.392Z,2.47
2023-03-22T10:01:55.319Z,2.10
2023-03-22T10:05:40.088Z,1.90
2023-03-22T10:12:24.145Z,2.00
2023-03-22T10:15:42.189Z,2.10
2023-03-22T10:18:51.985Z,3.22
2023-03-22T10:22:00.156Z,1.70
2023-03-22T10:25:07.734Z,2.28
2023-03-22T10:28:22.447Z,2.60
2023-03-22T10:31:28.404Z,1.73
2023-03-22T10:34:33.727Z,2.20
2023-03-22T10:37:40.568Z,2.10
2023-03-22T10:40:46.485Z,1.60
2023-03-22T10:43:59.978Z,1.48
2023-03-22T10:47:08.358Z,1.60
2023-03-22T10:50:28.650Z,2.20
2023-03-22T10:53:48.639Z,1.98
2023-03-22T10:56:53.784Z,2.20
2023-03-22T10:59:58.849Z,1.95
2023-03-22T11:03:05.411Z,2.22
2023-03-22T11:06:12.105Z,2.10
2023-03-22T11:09:22.339Z,1.70
2023-03-22T11:12:27.831Z,2.20
2023-03-22T11:15:35.497Z,1.90
2023-03-22T11:18:41.955Z,2.47
2023-03-22T11:21:46.767Z,1.95
2023-03-22T11:24:52.456Z,2.10
2023-03-22T11:28:15.027Z,1.80
2023-03-22T11:31:21.184Z,1.80
2023-03-22T11:34:30.835Z,1.70
2023-03-22T11:37:42.962Z,1.70
2023-03-22T11:40:55.094Z,1.60
2023-03-22T11:44:08.478Z,2.00
2023-03-22T11:47:14.123Z,1.52
2023-03-22T11:50:35.915Z,1.42
2023-03-22T11:53:46.599Z,1.80
2023-03-22T11:56:51.350Z,1.75
2023-03-22T12:00:05.432Z,1.77
2023-03-22T12:06:34.608Z,2.90
2023-03-22T12:09:42.903Z,1.40
2023-03-22T12:12:54.256Z,1.73
2023-03-22T12:16:03.028Z,1.92
2023-03-22T12:19:22.576Z,1.83
2023-03-22T12:22:32.788Z,1.98
2023-03-22T12:25:38.647Z,1.83
2023-03-22T12:29:03.700Z,1.70
2023-03-22T12:32:18.342Z,1.65
2023-03-22T12:35:29.356Z,1.80
2023-03-22T12:39:00.151Z,1.60
2023-03-22T12:42:21.994Z,1.60
2023-03-22T12:45:29.699Z,1.92
2023-03-22T12:48:46.661Z,1.75
2023-03-22T12:51:54.310Z,1.50
2023-03-22T12:55:01.664Z,1.70
2023-03-22T12:58:08.977Z,1.60
2023-03-22T13:01:51.425Z,1.55
2023-03-22T13:04:59.141Z,1.80
2023-03-22T13:08:05.959Z,1.92
2023-03-22T13:11:24.421Z,1.63
2023-03-22T13:14:59.893Z,1.65
2023-03-22T13:18:04.797Z,1.83
2023-03-22T13:21:24.849Z,1.48
2023-03-22T13:24:32.558Z,1.80
2023-03-22T13:27:45.104Z,1.50
2023-03-22T13:30:56.810Z,2.15
2023-03-22T13:34:12.514Z,1.70
2023-03-22T13:37:36.096Z,2.03
2023-03-22T13:41:05.701Z,1.88
2023-03-22T13:44:36.666Z,1.20
2023-03-22T13:47:46.988Z,1.40
2023-03-22T13:50:53.258Z,1.50
2023-03-22T13:54:18.702Z,1.42
2023-03-22T13:58:00.171Z,1.40
2023-03-22T14:01:36.872Z,1.50
2023-03-22T14:05:17.624Z,1.70
2023-03-22T14:08:29.240Z,1.50
2023-03-22T14:11:46.012Z,1.77
2023-03-22T14:15:15.650Z,1.67
2023-03-22T14:18:32.951Z,2.03
2023-03-22T14:21:42.931Z,1.33
